Hesperides — EANN — position and weather

sailwx.info

Track history (hours):
 
Tides and Currents Weather Stations Pressure Air Temp Water Temp Dewpoint Dewpoint Depression Visibility Wind Speed Wind Dir Waves Ship Positions

Hesperides

Last reported at 2015-Apr-01 11:30 UTC. Time now 2015-Apr-01 16:34 UTC.
Position N 28°29' W 016°14'.

Length 122 m; draft 5.8 m.

Type: Tanker. MMSI: 224462000.

Date/timePositionNaut miles runAvg speedWind from/ knotsBaromVisibWave heightAir tempDewpointWater temp
2015-Apr-01 11:30N 28°29' W 016°14'1 0.5
2015-Apr-01 10:13N 28°29' W 016°13'0 0.0
2015-Apr-01 09:16N 28°29' W 016°13'0 0.0
2015-Apr-01 08:31N 28°29' W 016°13'0 0.0
2015-Apr-01 07:31N 28°29' W 016°13'0 0.0
2015-Apr-01 06:31N 28°29' W 016°13'0 0.0
2015-Apr-01 05:30N 28°29' W 016°13'0 0.0
2015-Apr-01 04:30N 28°29' W 016°13'0 0.0
2015-Apr-01 03:33N 28°29' W 016°13'0 0.0
2015-Apr-01 02:33N 28°29' W 016°13'0 0.0
2015-Apr-01 01:33N 28°29' W 016°13'0 0.0
2015-Apr-01 00:33N 28°29' W 016°13'0 0.0
2015-Mar-31 23:33N 28°29' W 016°13'0 0.0
2015-Mar-31 22:33N 28°29' W 016°13'0 0.0
2015-Mar-31 20:33N 28°29' W 016°13'0 0.0
2015-Mar-31 18:09N 28°29' W 016°13'0 0.0
2015-Mar-31 17:24N 28°29' W 016°13'0 0.0
2015-Mar-31 16:06N 28°29' W 016°13'0 0.0
2015-Mar-31 15:24N 28°29' W 016°13'0 0.0
2015-Mar-31 14:24N 28°29' W 016°13'0 0.0
2015-Mar-31 13:27N 28°29' W 016°13'0 0.0
2015-Mar-31 12:21N 28°29' W 016°13'0 0.0
2015-Mar-31 11:27N 28°29' W 016°13'0 0.0
2015-Mar-31 10:24N 28°29' W 016°13'0 0.0
2015-Mar-31 09:30N 28°29' W 016°13'0 0.0
2015-Mar-31 08:30N 28°29' W 016°13'0 0.0
2015-Mar-31 06:27N 28°29' W 016°13'0 0.0
2015-Mar-31 04:30N 28°29' W 016°13'0 0.0
2015-Mar-31 03:30N 28°29' W 016°13'0 0.0
2015-Mar-31 02:33N 28°29' W 016°13'0 0.0
2015-Mar-31 01:33N 28°29' W 016°13'0 0.0
2015-Mar-30 21:30N 28°29' W 016°13'0 0.0
2015-Mar-30 18:17N 28°29' W 016°13'0 0.0
2015-Mar-30 13:26N 28°29' W 016°13'0 0.0
2015-Mar-30 12:11N 28°29' W 016°13'0 0.0
2015-Mar-30 11:26N 28°29' W 016°13'0 0.0
2015-Mar-30 10:11N 28°29' W 016°13'0 0.0
2015-Mar-30 08:14N 28°29' W 016°13'0 0.0
2015-Mar-30 07:26N 28°29' W 016°13'0 0.0
2015-Mar-30 04:26N 28°29' W 016°13'0 0.0
2015-Mar-30 03:29N 28°29' W 016°13'0 0.0
2015-Mar-30 02:29N 28°29' W 016°13'0 0.0
2015-Mar-29 23:32N 28°29' W 016°13'0 0.0
2015-Mar-29 22:32N 28°29' W 016°13'0 0.0
2015-Mar-29 21:29N 28°29' W 016°13'0 0.0
2015-Mar-29 20:20N 28°29' W 016°13'0 0.0
2015-Mar-29 19:17N 28°29' W 016°13'0 0.0
2015-Mar-29 18:32N 28°29' W 016°13'0 0.0
2015-Mar-29 17:32N 28°29' W 016°13'0 0.1
2015-Mar-29 16:34N 28°29' W 016°13'9 8.4
2015-Mar-29 15:33N 28°23' W 016°06'8 7.8
2015-Mar-29 14:32N 28°17' W 015°60'44 7.2
2015-Mar-29 08:28N 27°48' W 015°23'910.3
2015-Mar-29 07:34N 27°57' W 015°19'3 3.3
2015-Mar-29 06:33N 27°59' W 015°23'0 0.0
2015-Mar-28 09:33N 27°59' W 015°22'7 7.2
2015-Mar-28 08:33N 28°06' W 015°21'8 8.3
2015-Mar-28 07:33N 28°13' W 015°25'9 9.0
2015-Mar-28 06:33N 28°15' W 015°35'9 9.1
2015-Mar-28 05:33N 28°18' W 015°45'9 9.0
2015-Mar-28 04:33N 28°20' W 015°55'9 8.8
2015-Mar-28 03:33N 28°25' W 016°03'9 9.3
2015-Mar-28 02:33N 28°28' W 016°13'1 0.0
2015-Mar-27 11:19N 28°29' W 016°13'0 0.5
2015-Mar-27 10:33N 28°29' W 016°13'0 0.1
2015-Mar-27 09:14N 28°29' W 016°13'0 0.0
2015-Mar-27 08:26N 28°29' W 016°13'0 0.0
2015-Mar-27 07:11N 28°29' W 016°13'0 0.0
2015-Mar-27 06:32N 28°29' W 016°13'0 0.0
2015-Mar-27 05:26N 28°29' W 016°13'0 0.0
2015-Mar-27 04:32N 28°29' W 016°13'0 0.0
2015-Mar-27 03:29N 28°29' W 016°13'0 0.0
2015-Mar-27 02:05N 28°29' W 016°13'0 0.0
2015-Mar-27 01:29N 28°29' W 016°13'0 0.0
2015-Mar-27 00:29N 28°29' W 016°13'0 0.0
2015-Mar-26 23:34N 28°29' W 016°13'0 0.0
2015-Mar-26 22:30N 28°29' W 016°13'0 0.0
2015-Mar-26 21:33N 28°29' W 016°13'0 0.0
2015-Mar-26 20:33N 28°29' W 016°13'0 0.0
2015-Mar-26 19:33N 28°29' W 016°13'0 0.0
2015-Mar-26 18:31N 28°29' W 016°13'0 0.0
2015-Mar-26 17:33N 28°29' W 016°13'0 0.0
2015-Mar-26 16:33N 28°29' W 016°13'0 0.0
2015-Mar-26 15:33N 28°29' W 016°13'0 0.1
2015-Mar-26 14:33N 28°29' W 016°13'0 0.0
2015-Mar-26 13:33N 28°29' W 016°13'0 0.0
2015-Mar-26 12:33N 28°29' W 016°13'0 0.0
2015-Mar-26 11:32N 28°29' W 016°13'0 0.0
2015-Mar-26 10:31N 28°29' W 016°13'4 3.7
2015-Mar-26 09:33N 28°26' W 016°13'10 9.3
2015-Mar-26 08:27N 28°16' W 016°17'19 8.4
2015-Mar-26 06:11N 27°57' W 016°18'6 8.8
2015-Mar-26 05:30N 27°52' W 016°15'17 7.6
2015-Mar-26 03:14N 27°38' W 016°03'3710.0
2015-Mar-25 23:33N 27°44' W 015°22'1010.4
2015-Mar-25 22:33N 27°51' W 015°13'8 8.0
2015-Mar-25 21:33N 27°43' W 015°09'6 6.1
2015-Mar-25 20:33N 27°41' W 015°03'7 7.1
2015-Mar-25 19:33N 27°44' W 014°55'6 6.3
2015-Mar-25 18:33N 27°40' W 014°49'11 5.5
2015-Mar-25 16:33N 27°40' W 014°37'1010.0
2015-Mar-25 15:33N 27°49' W 014°31'10 9.9
2015-Mar-25 14:33N 27°55' W 014°23'1510.3
2015-Mar-25 13:09N 28°03' W 014°10'610.2
2015-Mar-25 12:33N 28°07' W 014°04'1110.5
2015-Mar-25 11:32N 28°13' W 013°54'1310.8
2015-Mar-25 10:21N 28°24' W 013°47'60 1.8
2015-Mar-24 00:31N 28°56' W 014°45'8 8.2
2015-Mar-23 23:33N 28°51' W 014°52'8 8.2
2015-Mar-23 22:33N 28°46' W 014°59'9 9.0
2015-Mar-23 21:33N 28°45' W 015°09'9 9.1
2015-Mar-23 20:33N 28°45' W 015°20'9 9.5
2015-Mar-23 19:33N 28°50' W 015°29'9 9.1
2015-Mar-23 18:33N 28°54' W 015°39'7 7.5
2015-Mar-23 17:33N 28°48' W 015°44'8 7.8
2015-Mar-23 16:33N 28°42' W 015°49'7 6.7
2015-Mar-23 15:33N 28°37' W 015°55'8 8.0
2015-Mar-23 14:33N 28°33' W 016°02'9 8.6
2015-Mar-23 13:30N 28°29' W 016°12'2 0.1
2015-Mar-23 02:15N 28°29' W 016°13'2 3.2
2015-Mar-23 01:32N 28°27' W 016°13'34 8.5
2015-Mar-22 21:30N 27°53' W 016°10'40 7.8
2015-Mar-22 16:24N 27°46' W 015°26'8 9.1
2015-Mar-22 15:33N 27°52' W 015°20'9 9.3
2015-Mar-22 14:33N 28°01' W 015°20'9 8.7
2015-Mar-22 13:33N 28°08' W 015°25'  
Track history (hours):
 
Tides and Currents Weather Stations Pressure Air Temp Water Temp Dewpoint Dewpoint Depression Visibility Wind Speed Wind Dir Waves Ship Positions

Hesperides

Last reported at 2015-Apr-01 11:30 UTC. Time now 2015-Apr-01 16:34 UTC.
Position N 28°29' W 016°14'.

Length 122 m; draft 5.8 m.

Type: Tanker. MMSI: 224462000.

Date/timePositionNaut miles runAvg speedWind from/ knotsBaromVisibWave heightAir tempDewpointWater temp
2015-Apr-01 11:30N 28°29' W 016°14'1 0.5
2015-Apr-01 10:13N 28°29' W 016°13'0 0.0
2015-Apr-01 09:16N 28°29' W 016°13'0 0.0
2015-Apr-01 08:31N 28°29' W 016°13'0 0.0
2015-Apr-01 07:31N 28°29' W 016°13'0 0.0
2015-Apr-01 06:31N 28°29' W 016°13'0 0.0
2015-Apr-01 05:30N 28°29' W 016°13'0 0.0
2015-Apr-01 04:30N 28°29' W 016°13'0 0.0
2015-Apr-01 03:33N 28°29' W 016°13'0 0.0
2015-Apr-01 02:33N 28°29' W 016°13'0 0.0
2015-Apr-01 01:33N 28°29' W 016°13'0 0.0
2015-Apr-01 00:33N 28°29' W 016°13'0 0.0
2015-Mar-31 23:33N 28°29' W 016°13'0 0.0
2015-Mar-31 22:33N 28°29' W 016°13'0 0.0
2015-Mar-31 20:33N 28°29' W 016°13'0 0.0
2015-Mar-31 18:09N 28°29' W 016°13'0 0.0
2015-Mar-31 17:24N 28°29' W 016°13'0 0.0
2015-Mar-31 16:06N 28°29' W 016°13'0 0.0
2015-Mar-31 15:24N 28°29' W 016°13'0 0.0
2015-Mar-31 14:24N 28°29' W 016°13'0 0.0
2015-Mar-31 13:27N 28°29' W 016°13'0 0.0
2015-Mar-31 12:21N 28°29' W 016°13'0 0.0
2015-Mar-31 11:27N 28°29' W 016°13'0 0.0
2015-Mar-31 10:24N 28°29' W 016°13'0 0.0
2015-Mar-31 09:30N 28°29' W 016°13'0 0.0
2015-Mar-31 08:30N 28°29' W 016°13'0 0.0
2015-Mar-31 06:27N 28°29' W 016°13'0 0.0
2015-Mar-31 04:30N 28°29' W 016°13'0 0.0
2015-Mar-31 03:30N 28°29' W 016°13'0 0.0
2015-Mar-31 02:33N 28°29' W 016°13'0 0.0
2015-Mar-31 01:33N 28°29' W 016°13'0 0.0
2015-Mar-30 21:30N 28°29' W 016°13'0 0.0
2015-Mar-30 18:17N 28°29' W 016°13'0 0.0
2015-Mar-30 13:26N 28°29' W 016°13'0 0.0
2015-Mar-30 12:11N 28°29' W 016°13'0 0.0
2015-Mar-30 11:26N 28°29' W 016°13'0 0.0
2015-Mar-30 10:11N 28°29' W 016°13'0 0.0
2015-Mar-30 08:14N 28°29' W 016°13'0 0.0
2015-Mar-30 07:26N 28°29' W 016°13'0 0.0
2015-Mar-30 04:26N 28°29' W 016°13'0 0.0
2015-Mar-30 03:29N 28°29' W 016°13'0 0.0
2015-Mar-30 02:29N 28°29' W 016°13'0 0.0
2015-Mar-29 23:32N 28°29' W 016°13'0 0.0
2015-Mar-29 22:32N 28°29' W 016°13'0 0.0
2015-Mar-29 21:29N 28°29' W 016°13'0 0.0
2015-Mar-29 20:20N 28°29' W 016°13'0 0.0
2015-Mar-29 19:17N 28°29' W 016°13'0 0.0
2015-Mar-29 18:32N 28°29' W 016°13'0 0.0
2015-Mar-29 17:32N 28°29' W 016°13'0 0.1
2015-Mar-29 16:34N 28°29' W 016°13'9 8.4
2015-Mar-29 15:33N 28°23' W 016°06'8 7.8
2015-Mar-29 14:32N 28°17' W 015°60'44 7.2
2015-Mar-29 08:28N 27°48' W 015°23'910.3
2015-Mar-29 07:34N 27°57' W 015°19'3 3.3
2015-Mar-29 06:33N 27°59' W 015°23'0 0.0
2015-Mar-28 09:33N 27°59' W 015°22'7 7.2
2015-Mar-28 08:33N 28°06' W 015°21'8 8.3
2015-Mar-28 07:33N 28°13' W 015°25'9 9.0
2015-Mar-28 06:33N 28°15' W 015°35'9 9.1
2015-Mar-28 05:33N 28°18' W 015°45'9 9.0
2015-Mar-28 04:33N 28°20' W 015°55'9 8.8
2015-Mar-28 03:33N 28°25' W 016°03'9 9.3
2015-Mar-28 02:33N 28°28' W 016°13'1 0.0
2015-Mar-27 11:19N 28°29' W 016°13'0 0.5
2015-Mar-27 10:33N 28°29' W 016°13'0 0.1
2015-Mar-27 09:14N 28°29' W 016°13'0 0.0
2015-Mar-27 08:26N 28°29' W 016°13'0 0.0
2015-Mar-27 07:11N 28°29' W 016°13'0 0.0
2015-Mar-27 06:32N 28°29' W 016°13'0 0.0
2015-Mar-27 05:26N 28°29' W 016°13'0 0.0
2015-Mar-27 04:32N 28°29' W 016°13'0 0.0
2015-Mar-27 03:29N 28°29' W 016°13'0 0.0
2015-Mar-27 02:05N 28°29' W 016°13'0 0.0
2015-Mar-27 01:29N 28°29' W 016°13'0 0.0
2015-Mar-27 00:29N 28°29' W 016°13'0 0.0
2015-Mar-26 23:34N 28°29' W 016°13'0 0.0
2015-Mar-26 22:30N 28°29' W 016°13'0 0.0
2015-Mar-26 21:33N 28°29' W 016°13'0 0.0
2015-Mar-26 20:33N 28°29' W 016°13'0 0.0
2015-Mar-26 19:33N 28°29' W 016°13'0 0.0
2015-Mar-26 18:31N 28°29' W 016°13'0 0.0
2015-Mar-26 17:33N 28°29' W 016°13'0 0.0
2015-Mar-26 16:33N 28°29' W 016°13'0 0.0
2015-Mar-26 15:33N 28°29' W 016°13'0 0.1
2015-Mar-26 14:33N 28°29' W 016°13'0 0.0
2015-Mar-26 13:33N 28°29' W 016°13'0 0.0
2015-Mar-26 12:33N 28°29' W 016°13'0 0.0
2015-Mar-26 11:32N 28°29' W 016°13'0 0.0
2015-Mar-26 10:31N 28°29' W 016°13'4 3.7
2015-Mar-26 09:33N 28°26' W 016°13'10 9.3
2015-Mar-26 08:27N 28°16' W 016°17'19 8.4
2015-Mar-26 06:11N 27°57' W 016°18'6 8.8
2015-Mar-26 05:30N 27°52' W 016°15'17 7.6
2015-Mar-26 03:14N 27°38' W 016°03'3710.0
2015-Mar-25 23:33N 27°44' W 015°22'1010.4
2015-Mar-25 22:33N 27°51' W 015°13'8 8.0
2015-Mar-25 21:33N 27°43' W 015°09'6 6.1
2015-Mar-25 20:33N 27°41' W 015°03'7 7.1
2015-Mar-25 19:33N 27°44' W 014°55'6 6.3
2015-Mar-25 18:33N 27°40' W 014°49'11 5.5
2015-Mar-25 16:33N 27°40' W 014°37'1010.0
2015-Mar-25 15:33N 27°49' W 014°31'10 9.9
2015-Mar-25 14:33N 27°55' W 014°23'1510.3
2015-Mar-25 13:09N 28°03' W 014°10'610.2
2015-Mar-25 12:33N 28°07' W 014°04'1110.5
2015-Mar-25 11:32N 28°13' W 013°54'1310.8
2015-Mar-25 10:21N 28°24' W 013°47'60 1.8
2015-Mar-24 00:31N 28°56' W 014°45'8 8.2
2015-Mar-23 23:33N 28°51' W 014°52'8 8.2
2015-Mar-23 22:33N 28°46' W 014°59'9 9.0
2015-Mar-23 21:33N 28°45' W 015°09'9 9.1
2015-Mar-23 20:33N 28°45' W 015°20'9 9.5
2015-Mar-23 19:33N 28°50' W 015°29'9 9.1
2015-Mar-23 18:33N 28°54' W 015°39'7 7.5
2015-Mar-23 17:33N 28°48' W 015°44'8 7.8
2015-Mar-23 16:33N 28°42' W 015°49'7 6.7
2015-Mar-23 15:33N 28°37' W 015°55'8 8.0
2015-Mar-23 14:33N 28°33' W 016°02'9 8.6
2015-Mar-23 13:30N 28°29' W 016°12'2 0.1
2015-Mar-23 02:15N 28°29' W 016°13'2 3.2
2015-Mar-23 01:32N 28°27' W 016°13'34 8.5
2015-Mar-22 21:30N 27°53' W 016°10'40 7.8
2015-Mar-22 16:24N 27°46' W 015°26'8 9.1
2015-Mar-22 15:33N 27°52' W 015°20'9 9.3
2015-Mar-22 14:33N 28°01' W 015°20'9 8.7
2015-Mar-22 13:33N 28°08' W 015°25'  

Dump ship's entire track history